sensor_id;sensor_type;location;lat;lon;timestamp;P1;durP1;ratioP1;P2;durP2;ratioP2
16177;SDS011;8195;51.220;9.746;2023-04-06T00:07:54;10.03;;;9.13;;
16177;SDS011;8195;51.220;9.746;2023-04-06T00:18:15;10.43;;;9.30;;
16177;SDS011;8195;51.220;9.746;2023-04-06T00:28:39;10.43;;;9.57;;
16177;SDS011;8195;51.220;9.746;2023-04-06T00:39:00;10.57;;;9.40;;
16177;SDS011;8195;51.220;9.746;2023-04-06T00:49:21;10.33;;;9.33;;
16177;SDS011;8195;51.220;9.746;2023-04-06T00:59:42;11.13;;;9.90;;
16177;SDS011;8195;51.220;9.746;2023-04-06T01:10:04;10.90;;;9.40;;
16177;SDS011;8195;51.220;9.746;2023-04-06T01:20:25;10.60;;;9.67;;
16177;SDS011;8195;51.220;9.746;2023-04-06T01:30:46;10.87;;;9.90;;
16177;SDS011;8195;51.220;9.746;2023-04-06T01:41:07;12.10;;;9.87;;
16177;SDS011;8195;51.220;9.746;2023-04-06T01:51:28;10.43;;;9.43;;
16177;SDS011;8195;51.220;9.746;2023-04-06T02:01:49;11.03;;;9.83;;
16177;SDS011;8195;51.220;9.746;2023-04-06T02:12:10;11.47;;;10.37;;
16177;SDS011;8195;51.220;9.746;2023-04-06T02:22:31;10.13;;;9.13;;
16177;SDS011;8195;51.220;9.746;2023-04-06T02:32:52;11.17;;;10.13;;
16177;SDS011;8195;51.220;9.746;2023-04-06T02:43:13;11.10;;;9.97;;
16177;SDS011;8195;51.220;9.746;2023-04-06T02:53:34;10.60;;;9.70;;
16177;SDS011;8195;51.220;9.746;2023-04-06T03:03:54;11.43;;;10.13;;
16177;SDS011;8195;51.220;9.746;2023-04-06T03:14:15;10.67;;;9.63;;
16177;SDS011;8195;51.220;9.746;2023-04-06T03:24:36;12.43;;;10.13;;
16177;SDS011;8195;51.220;9.746;2023-04-06T03:34:57;10.57;;;9.40;;
16177;SDS011;8195;51.220;9.746;2023-04-06T03:45:19;10.70;;;9.67;;
16177;SDS011;8195;51.220;9.746;2023-04-06T03:55:40;11.07;;;9.93;;
16177;SDS011;8195;51.220;9.746;2023-04-06T04:06:01;10.03;;;9.03;;
16177;SDS011;8195;51.220;9.746;2023-04-06T04:16:22;17.80;;;16.10;;
16177;SDS011;8195;51.220;9.746;2023-04-06T04:26:43;11.13;;;9.93;;
16177;SDS011;8195;51.220;9.746;2023-04-06T04:37:04;12.77;;;9.57;;
16177;SDS011;8195;51.220;9.746;2023-04-06T04:47:24;11.67;;;10.13;;
16177;SDS011;8195;51.220;9.746;2023-04-06T04:57:46;10.13;;;9.23;;
16177;SDS011;8195;51.220;9.746;2023-04-06T05:08:06;10.00;;;9.10;;
16177;SDS011;8195;51.220;9.746;2023-04-06T05:18:27;11.87;;;9.90;;
16177;SDS011;8195;51.220;9.746;2023-04-06T05:28:48;10.43;;;9.43;;
16177;SDS011;8195;51.220;9.746;2023-04-06T05:39:09;10.57;;;9.57;;
16177;SDS011;8195;51.220;9.746;2023-04-06T05:49:30;9.87;;;8.90;;
16177;SDS011;8195;51.220;9.746;2023-04-06T05:59:54;9.80;;;8.90;;
16177;SDS011;8195;51.220;9.746;2023-04-06T06:10:15;9.30;;;8.40;;
16177;SDS011;8195;51.220;9.746;2023-04-06T06:20:36;8.90;;;8.00;;
16177;SDS011;8195;51.220;9.746;2023-04-06T06:30:57;8.87;;;8.07;;
16177;SDS011;8195;51.220;9.746;2023-04-06T06:41:32;9.73;;;8.73;;
16177;SDS011;8195;51.220;9.746;2023-04-06T06:52:07;9.27;;;8.37;;
16177;SDS011;8195;51.220;9.746;2023-04-06T07:02:50;9.83;;;8.87;;
16177;SDS011;8195;51.220;9.746;2023-04-06T07:13:11;9.80;;;9.00;;
16177;SDS011;8195;51.220;9.746;2023-04-06T07:23:32;10.20;;;9.33;;
16177;SDS011;8195;51.220;9.746;2023-04-06T07:34:02;10.27;;;9.43;;
16177;SDS011;8195;51.220;9.746;2023-04-06T07:44:44;10.17;;;9.27;;
16177;SDS011;8195;51.220;9.746;2023-04-06T07:55:05;10.70;;;9.70;;
16177;SDS011;8195;51.220;9.746;2023-04-06T08:05:26;10.40;;;9.50;;
16177;SDS011;8195;51.220;9.746;2023-04-06T08:15:47;10.47;;;9.57;;
16177;SDS011;8195;51.220;9.746;2023-04-06T08:26:08;11.23;;;10.10;;
16177;SDS011;8195;51.220;9.746;2023-04-06T08:36:29;10.83;;;9.83;;
16177;SDS011;8195;51.220;9.746;2023-04-06T08:46:53;11.33;;;10.23;;
16177;SDS011;8195;51.220;9.746;2023-04-06T08:57:15;10.73;;;9.77;;
16177;SDS011;8195;51.220;9.746;2023-04-06T09:07:38;11.57;;;10.37;;
16177;SDS011;8195;51.220;9.746;2023-04-06T09:17:59;9.97;;;9.07;;
16177;SDS011;8195;51.220;9.746;2023-04-06T09:28:20;8.50;;;7.80;;
16177;SDS011;8195;51.220;9.746;2023-04-06T09:49:33;9.37;;;8.67;;
16177;SDS011;8195;51.220;9.746;2023-04-06T10:32:19;12.77;;;11.63;;
16177;SDS011;8195;51.220;9.746;2023-04-06T10:42:40;12.17;;;11.00;;
16177;SDS011;8195;51.220;9.746;2023-04-06T10:53:02;12.00;;;10.90;;
16177;SDS011;8195;51.220;9.746;2023-04-06T11:03:49;11.73;;;10.63;;
16177;SDS011;8195;51.220;9.746;2023-04-06T11:14:12;12.67;;;11.53;;
16177;SDS011;8195;51.220;9.746;2023-04-06T11:24:33;13.17;;;11.90;;
16177;SDS011;8195;51.220;9.746;2023-04-06T11:34:54;12.40;;;11.20;;
16177;SDS011;8195;51.220;9.746;2023-04-06T11:45:17;11.50;;;10.50;;
16177;SDS011;8195;51.220;9.746;2023-04-06T11:55:38;11.20;;;10.30;;
16177;SDS011;8195;51.220;9.746;2023-04-06T12:05:59;12.10;;;11.10;;
16177;SDS011;8195;51.220;9.746;2023-04-06T12:16:20;12.20;;;11.10;;
16177;SDS011;8195;51.220;9.746;2023-04-06T12:26:42;12.87;;;11.67;;
16177;SDS011;8195;51.220;9.746;2023-04-06T12:37:03;12.33;;;11.23;;
16177;SDS011;8195;51.220;9.746;2023-04-06T12:47:25;12.83;;;11.53;;
16177;SDS011;8195;51.220;9.746;2023-04-06T12:57:46;10.90;;;9.90;;
16177;SDS011;8195;51.220;9.746;2023-04-06T13:08:07;11.17;;;10.17;;
16177;SDS011;8195;51.220;9.746;2023-04-06T13:18:28;9.00;;;8.17;;
16177;SDS011;8195;51.220;9.746;2023-04-06T13:28:50;8.83;;;8.03;;
16177;SDS011;8195;51.220;9.746;2023-04-06T13:39:11;8.97;;;8.23;;
16177;SDS011;8195;51.220;9.746;2023-04-06T13:49:32;7.77;;;7.07;;
16177;SDS011;8195;51.220;9.746;2023-04-06T13:59:53;9.27;;;8.20;;
16177;SDS011;8195;51.220;9.746;2023-04-06T14:10:14;8.57;;;7.73;;
16177;SDS011;8195;51.220;9.746;2023-04-06T14:20:35;8.13;;;7.33;;
16177;SDS011;8195;51.220;9.746;2023-04-06T14:30:56;7.60;;;6.90;;
16177;SDS011;8195;51.220;9.746;2023-04-06T14:41:19;9.80;;;8.30;;
16177;SDS011;8195;51.220;9.746;2023-04-06T14:51:42;8.43;;;7.63;;
16177;SDS011;8195;51.220;9.746;2023-04-06T15:02:03;8.03;;;7.20;;
16177;SDS011;8195;51.220;9.746;2023-04-06T15:12:24;8.47;;;7.77;;
16177;SDS011;8195;51.220;9.746;2023-04-06T15:22:45;8.83;;;8.03;;
16177;SDS011;8195;51.220;9.746;2023-04-06T15:33:06;8.13;;;7.43;;
16177;SDS011;8195;51.220;9.746;2023-04-06T15:43:39;7.73;;;7.03;;
16177;SDS011;8195;51.220;9.746;2023-04-06T15:54:20;9.10;;;8.20;;
16177;SDS011;8195;51.220;9.746;2023-04-06T16:04:41;10.13;;;9.10;;
16177;SDS011;8195;51.220;9.746;2023-04-06T16:15:22;9.47;;;8.50;;
16177;SDS011;8195;51.220;9.746;2023-04-06T16:25:46;10.27;;;8.70;;
16177;SDS011;8195;51.220;9.746;2023-04-06T16:36:08;12.00;;;9.20;;
16177;SDS011;8195;51.220;9.746;2023-04-06T16:46:55;9.90;;;8.90;;
16177;SDS011;8195;51.220;9.746;2023-04-06T16:57:26;10.70;;;9.13;;
16177;SDS011;8195;51.220;9.746;2023-04-06T17:07:49;10.23;;;9.17;;
16177;SDS011;8195;51.220;9.746;2023-04-06T17:18:32;9.50;;;8.50;;
16177;SDS011;8195;51.220;9.746;2023-04-06T17:28:57;8.70;;;7.90;;
16177;SDS011;8195;51.220;9.746;2023-04-06T17:39:18;8.40;;;7.60;;
16177;SDS011;8195;51.220;9.746;2023-04-06T17:49:50;9.20;;;8.27;;
16177;SDS011;8195;51.220;9.746;2023-04-06T18:00:17;9.60;;;8.60;;
16177;SDS011;8195;51.220;9.746;2023-04-06T18:10:38;13.03;;;9.47;;
16177;SDS011;8195;51.220;9.746;2023-04-06T18:21:23;10.43;;;8.37;;
16177;SDS011;8195;51.220;9.746;2023-04-06T18:31:44;10.67;;;8.70;;
16177;SDS011;8195;51.220;9.746;2023-04-06T18:42:05;9.60;;;8.43;;
16177;SDS011;8195;51.220;9.746;2023-04-06T18:52:26;9.47;;;8.47;;
16177;SDS011;8195;51.220;9.746;2023-04-06T19:02:47;9.97;;;8.50;;
16177;SDS011;8195;51.220;9.746;2023-04-06T19:13:08;10.93;;;8.80;;
16177;SDS011;8195;51.220;9.746;2023-04-06T19:23:29;10.87;;;9.10;;
16177;SDS011;8195;51.220;9.746;2023-04-06T19:33:50;10.13;;;9.03;;
16177;SDS011;8195;51.220;9.746;2023-04-06T19:44:24;10.83;;;9.43;;
16177;SDS011;8195;51.220;9.746;2023-04-06T19:54:52;11.40;;;9.07;;
16177;SDS011;8195;51.220;9.746;2023-04-06T20:05:13;10.63;;;8.73;;
16177;SDS011;8195;51.220;9.746;2023-04-06T20:15:34;10.87;;;9.43;;
16177;SDS011;8195;51.220;9.746;2023-04-06T20:25:55;9.80;;;8.67;;
16177;SDS011;8195;51.220;9.746;2023-04-06T20:36:17;9.20;;;8.03;;
16177;SDS011;8195;51.220;9.746;2023-04-06T20:46:38;10.17;;;8.70;;
16177;SDS011;8195;51.220;9.746;2023-04-06T20:56:59;10.70;;;8.27;;
16177;SDS011;8195;51.220;9.746;2023-04-06T21:07:20;10.50;;;8.93;;
16177;SDS011;8195;51.220;9.746;2023-04-06T21:17:41;11.53;;;9.03;;
16177;SDS011;8195;51.220;9.746;2023-04-06T21:28:03;9.07;;;8.17;;
16177;SDS011;8195;51.220;9.746;2023-04-06T21:38:24;10.13;;;8.55;;
16177;SDS011;8195;51.220;9.746;2023-04-06T21:48:45;11.00;;;9.53;;
16177;SDS011;8195;51.220;9.746;2023-04-06T21:59:09;12.00;;;9.30;;
16177;SDS011;8195;51.220;9.746;2023-04-06T22:09:30;10.40;;;8.63;;
16177;SDS011;8195;51.220;9.746;2023-04-06T22:19:54;10.47;;;8.90;;
16177;SDS011;8195;51.220;9.746;2023-04-06T22:30:16;10.47;;;8.73;;
16177;SDS011;8195;51.220;9.746;2023-04-06T22:40:37;12.23;;;9.30;;
16177;SDS011;8195;51.220;9.746;2023-04-06T22:50:58;10.00;;;9.00;;
16177;SDS011;8195;51.220;9.746;2023-04-06T23:01:19;11.33;;;9.20;;
16177;SDS011;8195;51.220;9.746;2023-04-06T23:11:40;9.33;;;8.53;;
16177;SDS011;8195;51.220;9.746;2023-04-06T23:22:04;9.60;;;8.60;;
16177;SDS011;8195;51.220;9.746;2023-04-06T23:32:31;9.43;;;8.40;;
16177;SDS011;8195;51.220;9.746;2023-04-06T23:42:52;9.37;;;8.47;;
16177;SDS011;8195;51.220;9.746;2023-04-06T23:53:13;8.73;;;7.83;;
